createdAt,value
2017-11-27T13:11:51.517Z,21.27
2017-11-27T13:20:09.715Z,21.25
2017-11-27T16:05:44.852Z,18.84
2017-11-27T16:10:44.833Z,18.69
2017-11-27T16:15:44.702Z,18.87
2017-11-27T16:20:44.621Z,18.78
2017-11-27T16:25:44.551Z,18.72
2017-11-27T16:30:44.473Z,18.72
2017-11-27T16:35:44.165Z,18.65
2017-11-27T16:40:44.367Z,18.75
2017-11-27T16:45:44.383Z,18.91
2017-11-27T16:50:44.236Z,19.24
2017-11-27T16:55:44.178Z,19.47
2017-11-27T17:00:43.871Z,19.57
2017-11-27T17:05:44.067Z,19.65
2017-11-27T17:10:44.023Z,19.68
2017-11-27T17:15:43.966Z,19.71
2017-11-27T17:20:43.661Z,19.61
2017-11-27T17:25:43.849Z,19.53
2017-11-27T17:30:43.835Z,19.47
2017-11-27T17:35:43.790Z,19.45
2017-11-27T17:40:43.752Z,19.49
2017-11-27T17:45:43.642Z,19.47
2017-11-27T17:50:43.591Z,19.4
2017-11-27T17:55:43.553Z,19.42
2017-11-27T18:00:43.601Z,19.45
2017-11-27T18:05:43.188Z,19.4
2017-11-27T18:10:43.483Z,19.47
2017-11-27T18:15:43.338Z,19.45
2017-11-27T18:20:43.259Z,19.45
2017-11-27T18:25:43.225Z,19.43
2017-11-27T18:30:43.191Z,19.43
2017-11-27T18:35:42.851Z,19.47
2017-11-27T18:40:43.095Z,19.45
2017-11-27T18:45:43.017Z,19.47
2017-11-27T18:50:42.955Z,19.43
2017-11-27T18:55:42.898Z,19.47
2017-11-27T19:00:42.827Z,19.65
2017-11-27T19:05:42.794Z,19.57
2017-11-27T19:10:42.727Z,19.65
2017-11-27T19:15:42.666Z,19.61
2017-11-27T19:20:42.621Z,19.56
2017-11-27T19:25:42.723Z,19.61
2017-11-27T19:30:42.526Z,19.56
2017-11-27T19:35:42.467Z,19.6
2017-11-27T19:40:42.408Z,19.7
2017-11-27T19:45:42.344Z,19.65
2017-11-27T19:50:42.321Z,19.63
2017-11-27T19:55:42.242Z,19.61
2017-11-27T20:00:42.193Z,19.6
2017-11-27T20:05:42.135Z,19.57
2017-11-27T20:10:42.073Z,19.63
2017-11-27T20:15:42.038Z,19.67
2017-11-27T20:20:41.977Z,19.65
2017-11-27T20:25:41.903Z,19.74
2017-11-27T20:30:41.854Z,19.64
2017-11-27T20:35:41.791Z,19.68
2017-11-27T20:40:41.824Z,19.71
2017-11-27T20:45:41.666Z,19.63
2017-11-27T20:50:41.686Z,19.65
2017-11-27T20:55:41.626Z,19.67
2017-11-27T21:00:41.523Z,19.63
2017-11-27T21:05:41.478Z,19.67
2017-11-27T21:10:41.408Z,19.57
2017-11-27T21:15:41.369Z,19.72
2017-11-27T21:20:41.338Z,19.8
2017-11-27T21:25:41.276Z,19.82
2017-11-27T21:30:41.204Z,19.92
2017-11-27T21:35:41.174Z,20.07
2017-11-27T21:40:41.089Z,20.22
2017-11-27T21:45:41.044Z,20.08
2017-11-27T21:50:40.993Z,20.19
2017-11-27T21:55:40.988Z,20.08
2017-11-27T22:00:40.625Z,19.97
2017-11-27T22:05:40.822Z,19.97
2017-11-27T22:10:40.781Z,20.05
2017-11-27T22:15:40.712Z,20
2017-11-27T22:20:40.696Z,19.87
2017-11-27T22:25:40.598Z,19.9
2017-11-27T22:30:40.554Z,19.85
2017-11-27T22:35:40.224Z,19.74
2017-11-27T22:40:40.435Z,19.78
2017-11-27T22:45:40.387Z,19.78
2017-11-27T22:50:40.060Z,19.57
2017-11-27T22:55:40.273Z,19.43
2017-11-27T23:00:40.235Z,19.35
2017-11-27T23:05:40.185Z,19.3
2017-11-27T23:10:40.119Z,19.35
2017-11-27T23:15:40.061Z,19.2
2017-11-27T23:20:39.743Z,18.99
2017-11-27T23:25:39.679Z,18.87
2017-11-27T23:30:39.897Z,18.89
2017-11-27T23:35:39.854Z,18.79
2017-11-27T23:40:39.494Z,18.72
2017-11-27T23:45:39.691Z,18.61
2017-11-27T23:50:39.634Z,18.63
2017-11-27T23:55:39.569Z,18.51
